Ride Results

BEER - Uncle Ernie's Highclere (01-02-2014)
Ride distance: 80.0 km

Outcomes - BEER - Uncle Ernie's Highclere (01-02-2014)
Division No. of Entries Retired / DNE Completed Withdrawn Ineligible V/O Percentage Completed
HW 3 - 3 - - - 100.00%
MW 7 - 6 - - 1 85.71%
LW 9 - 7 - 2 - 77.78%
JN 5 - 4 - - 1 80.00%
Totals 24 - 20 - 2 2 83.33%
Results - BEER - Uncle Ernie's Highclere (01-02-2014)
No. Rider Horse Place Time Leg Speeds Total
Km/Hr
H/R bpm
Heavyweight
194 Robby Walsh Free Spirit Czar 1 (BC) 5:42:45 17.5, 11.6 14.00 36, 47, 51 (Avg:49)
14 Philip Gerke Madeline Park Show Girl 2 7:15:19 11.6, 10.4 11.03 59, 47, 54 (Avg:50)
156 Jared Pickering Glanheathyn Joey 3 7:47:15 11.4, 9.3 10.27 34, 44, 48 (Avg:46)
Middleweight
101 Wendy Rand Shayelle Memphis 1 (BC) 5:02:24 17.1, 14.7 15.87 31, 39, 41 (Avg:40)
185 Mikaela Jago Rivergum Ripper 2 6:29:39 12.9, 11.7 12.32 40, 44, 48 (Avg:46)
57 Tania Jago Undurra Max 3 6:29:40 12.9, 11.7 12.32 39, 43, 48 (Avg:45)
143 Pauline Goodwin Marley Hosanna 4 6:36:38 14.0, 10.6 12.10 37, 40, 45 (Avg:42)
38 Tony Purton Beer Street Bewitched 5 6:57:22 12.9, 10.3 11.50 37, 48, 49 (Avg:48)
132 Ian Davidson Picnic Park King Roy 6 7:47:14 11.4, 9.3 10.27 38, 44, 46 (Avg:45)
136 Kaye Mitchell Beer Street Banshee Lame L2 0:00:00 15.7, 12.1 - 37, 46, 53 (Avg:49)
Lightweight
182 Fran Jordan Tierview Saadat 1 5:54:00 15.3, 12.1 13.56 35, 50, 50 (Avg:50)
42 Dianne Walsh Razorback Silver Wings 1 (BC) 5:54:00 15.3, 12.1 13.56 43, 43, 47 (Avg:45)
83 Angie Clark Byrnlea Park Vyrtigo 3 6:23:15 12.8, 12.2 12.52 40, 45, 47 (Avg:46)
203 Ellie Woodhouse Cognac 4 6:27:22 12.3, 12.4 12.39 42, 48, 46 (Avg:47)
100 Trish Smith Anglesea Piccolo 5 6:36:37 14.0, 10.6 12.10 43, 44, 43 (Avg:43)
6 Christine King Clearwater Tigerlily 6 7:15:18 11.6, 10.4 11.03 34, 40, 48 (Avg:44)
271 Jessie Herman Black Pearl Calliope 7 7:47:13 11.5, 9.2 10.27 46, 54, 45 (Avg:49)
191 Tracy-Lee Feltrin Highland View Sheriff Out of Time L1 0:00:00 10.9 - 36, 48 (Avg:48)
281 Kristie Wright Karabah Tully Out of Time L1 0:00:00 10.9 - 38, 44 (Avg:44)
Junior
190 Alice Mitchell Beer Street Willis 1 (BC) 5:18:00 17.1, 13.4 15.09 39, 45, 53 (Avg:49)
113 Kirstie Lockhart Suroco 2 6:22:31 12.0, 13.0 12.55 48, 42, 49 (Avg:45)
209 Grace Huxtable Highland View Blossom 3 6:23:16 12.3, 12.7 12.52 38, 46, 47 (Avg:46)
74 Felicity Perry Mianaibara Angel of the Morning 4 6:27:21 12.3, 12.4 12.39 34, 40, 42 (Avg:41)
77 Brett Lockhart Lockleigh Park Star Lame L2 0:00:00 12.0, 13.0 - 40, 45, 48 (Avg:46)